Time;durP1;ratioP1;P1;durP2;ratioP2;P2;SDS_P1;SDS_P2;PMS_P1;PMS_P2;Temp;Humidity;BMP_temperature;BMP_pressure;BME280_temperature;BME280_humidity;BME280_pressure;Samples;Min_cycle;Max_cycle;Signal;HPM_P1;HPM_P2
2023/07/16 00:00:12;;;;;;;7.30;3.35;;;26.40;78.40;;;;;;5075269;28;20021;-72
2023/07/16 00:02:38;;;;;;;11.80;4.03;;;26.40;78.70;;;;;;5075205;28;20032;-72
2023/07/16 00:05:04;;;;;;;6.60;3.17;;;26.40;79.00;;;;;;5075139;28;20066;-73
2023/07/16 00:07:30;;;;;;;5.95;3.40;;;26.40;79.30;;;;;;5075279;28;20056;-72
2023/07/16 00:09:55;;;;;;;9.02;3.90;;;26.40;79.40;;;;;;5057059;28;20060;-72
2023/07/16 00:12:21;;;;;;;7.05;3.22;;;26.30;79.20;;;;;;5075052;28;20019;-72
2023/07/16 00:14:48;;;;;;;7.50;3.53;;;26.30;79.20;;;;;;5075200;28;20063;-72
2023/07/16 00:17:13;;;;;;;11.73;3.83;;;26.30;79.60;;;;;;5074894;28;20039;-71
2023/07/16 00:19:39;;;;;;;10.13;3.67;;;26.30;79.70;;;;;;5074924;28;20029;-73
2023/07/16 00:22:05;;;;;;;12.00;3.90;;;26.20;79.60;;;;;;5074822;28;20029;-73
2023/07/16 00:24:31;;;;;;;8.13;3.80;;;26.20;79.60;;;;;;5074907;28;20535;-72
2023/07/16 00:26:57;;;;;;;8.50;3.90;;;26.20;79.70;;;;;;5074725;28;20534;-72
2023/07/16 00:29:23;;;;;;;11.68;3.83;;;26.20;79.60;;;;;;5074717;28;20386;-72
2023/07/16 00:31:49;;;;;;;10.05;3.80;;;26.20;79.60;;;;;;5074530;28;20024;-72
2023/07/16 00:34:15;;;;;;;6.72;3.78;;;26.10;79.80;;;;;;5074323;28;20237;-72
2023/07/16 00:36:41;;;;;;;6.40;3.63;;;26.10;80.10;;;;;;5074698;28;20382;-72
2023/07/16 00:39:06;;;;;;;6.10;3.80;;;26.00;80.30;;;;;;5074601;28;20031;-72
2023/07/16 00:41:32;;;;;;;8.82;3.50;;;26.00;80.30;;;;;;5074562;28;20016;-72
2023/07/16 00:43:58;;;;;;;8.68;3.85;;;25.90;80.00;;;;;;5074557;28;20064;-72
2023/07/16 00:46:24;;;;;;;7.63;3.90;;;25.90;80.00;;;;;;5074367;28;20120;-72
2023/07/16 00:48:50;;;;;;;8.20;3.78;;;25.90;79.80;;;;;;5074431;28;20386;-73
2023/07/16 00:51:17;;;;;;;10.85;4.22;;;25.90;80.00;;;;;;5074345;28;20099;-72
2023/07/16 00:53:44;;;;;;;7.63;4.15;;;25.80;80.10;;;;;;5074256;28;20048;-72
2023/07/16 00:56:11;;;;;;;10.25;3.53;;;25.80;80.20;;;;;;5073857;28;20077;-72
2023/07/16 00:58:36;;;;;;;7.75;4.18;;;25.80;80.20;;;;;;5071891;28;20059;-72
2023/07/16 01:01:02;;;;;;;8.45;4.25;;;25.80;80.30;;;;;;5071388;28;20060;-72
2023/07/16 01:03:28;;;;;;;11.82;3.78;;;25.70;80.40;;;;;;5071165;28;20032;-72
2023/07/16 01:06:20;;;;;;;8.55;4.25;;;25.70;80.30;;;;;;5073355;28;20029;-73
2023/07/16 01:08:54;;;;;;;11.73;4.40;;;25.70;80.40;;;;;;5073712;28;20025;-72
2023/07/16 01:11:21;;;;;;;17.15;4.43;;;25.60;81.30;;;;;;5073859;28;20424;-72
2023/07/16 01:13:47;;;;;;;12.50;4.78;;;25.60;81.10;;;;;;5073683;28;20024;-72
2023/07/16 01:16:24;;;;;;;11.27;4.07;;;25.60;81.00;;;;;;5073481;28;20505;-72
2023/07/16 01:18:50;;;;;;;10.55;4.28;;;25.60;81.20;;;;;;5073321;28;20393;-72
2023/07/16 01:21:18;;;;;;;9.98;4.03;;;25.50;81.10;;;;;;5073267;28;20016;-72
2023/07/16 01:23:52;;;;;;;9.55;4.05;;;25.50;81.20;;;;;;5073516;28;20033;-73
2023/07/16 01:26:47;;;;;;;7.57;3.90;;;25.50;81.40;;;;;;5073443;28;20032;-72
2023/07/16 01:29:24;;;;;;;7.65;4.03;;;25.50;81.50;;;;;;5001981;28;20447;-72
2023/07/16 01:31:51;;;;;;;9.20;4.00;;;25.40;81.60;;;;;;5073490;28;20474;-72
2023/07/16 01:34:17;;;;;;;14.40;4.80;;;25.40;81.90;;;;;;5073469;28;20504;-72
2023/07/16 01:36:45;;;;;;;8.15;4.07;;;25.40;82.00;;;;;;5072934;28;20021;-72
2023/07/16 01:39:10;;;;;;;13.45;4.85;;;25.40;82.10;;;;;;5073145;28;20023;-72
2023/07/16 01:41:36;;;;;;;7.80;4.35;;;25.40;81.70;;;;;;5073077;28;20020;-73
2023/07/16 01:44:02;;;;;;;9.30;4.38;;;25.40;81.80;;;;;;5073317;28;20032;-72
2023/07/16 01:46:29;;;;;;;8.20;4.05;;;25.40;81.90;;;;;;5038343;28;20048;-72
2023/07/16 01:48:55;;;;;;;9.30;4.38;;;25.40;82.00;;;;;;5073187;28;20097;-72
2023/07/16 01:51:20;;;;;;;10.15;4.50;;;25.30;81.90;;;;;;5073155;28;20466;-72
2023/07/16 01:53:46;;;;;;;12.98;4.70;;;25.30;82.10;;;;;;5073315;28;20081;-72
2023/07/16 01:56:12;;;;;;;11.25;4.57;;;25.30;82.10;;;;;;5072993;28;20027;-72
2023/07/16 01:58:38;;;;;;;11.15;4.63;;;25.30;82.30;;;;;;5072912;28;20489;-72
2023/07/16 02:01:04;;;;;;;12.02;4.55;;;25.20;82.30;;;;;;5073096;28;20028;-72
2023/07/16 02:03:30;;;;;;;8.13;4.45;;;25.20;82.30;;;;;;5073063;28;20048;-73
2023/07/16 02:05:56;;;;;;;9.95;4.88;;;25.20;82.30;;;;;;5072909;28;20017;-73
2023/07/16 02:08:22;;;;;;;7.82;4.03;;;25.20;82.30;;;;;;5071977;28;20044;-72
2023/07/16 02:10:48;;;;;;;10.93;4.35;;;25.20;82.30;;;;;;5073149;28;20016;-72
2023/07/16 02:13:14;;;;;;;11.57;4.50;;;25.20;82.60;;;;;;5073011;28;20035;-72
2023/07/16 02:15:39;;;;;;;11.23;4.75;;;25.10;82.50;;;;;;5072831;28;20016;-72
2023/07/16 02:18:06;;;;;;;10.20;4.95;;;25.10;82.60;;;;;;5072817;28;20103;-72
2023/07/16 02:20:33;;;;;;;11.52;4.95;;;25.10;82.70;;;;;;5072537;28;20041;-72
2023/07/16 02:22:58;;;;;;;9.68;4.97;;;25.10;83.10;;;;;;5072671;28;20025;-73
2023/07/16 02:25:25;;;;;;;9.35;4.13;;;25.10;82.70;;;;;;5072837;28;20111;-72
2023/07/16 02:27:51;;;;;;;9.93;4.10;;;25.10;82.90;;;;;;5072845;28;20028;-72
2023/07/16 02:30:17;;;;;;;9.57;4.47;;;25.00;83.40;;;;;;5072773;28;20021;-72
2023/07/16 02:32:43;;;;;;;10.30;4.30;;;25.10;82.80;;;;;;5072740;28;20458;-72
2023/07/16 02:35:09;;;;;;;11.80;4.38;;;25.00;82.60;;;;;;5072556;28;20074;-72
2023/07/16 02:37:35;;;;;;;9.98;4.20;;;25.00;82.70;;;;;;5072771;28;20474;-72
2023/07/16 02:40:01;;;;;;;7.32;4.30;;;25.00;82.90;;;;;;5072593;28;20028;-71
2023/07/16 02:42:26;;;;;;;12.77;4.38;;;25.00;83.10;;;;;;5072524;28;20033;-72
2023/07/16 02:44:52;;;;;;;9.32;4.00;;;25.00;83.00;;;;;;5038286;28;20043;-72
2023/07/16 02:47:18;;;;;;;12.48;4.22;;;25.00;83.00;;;;;;5072665;28;20043;-72
2023/07/16 02:49:44;;;;;;;7.32;4.53;;;25.00;82.90;;;;;;5072623;28;20482;-72
2023/07/16 02:52:10;;;;;;;10.68;4.65;;;25.00;82.80;;;;;;5072541;28;20032;-73
2023/07/16 02:54:36;;;;;;;8.45;4.40;;;25.00;82.70;;;;;;5072619;28;20025;-72
2023/07/16 02:57:02;;;;;;;10.45;4.00;;;25.00;82.60;;;;;;5072265;28;20117;-72
2023/07/16 02:59:28;;;;;;;13.32;4.00;;;25.00;83.10;;;;;;5072464;28;20054;-72
2023/07/16 03:01:54;;;;;;;10.20;4.03;;;25.00;82.60;;;;;;5072573;28;20033;-72
2023/07/16 03:04:19;;;;;;;6.72;4.13;;;25.00;82.60;;;;;;5072425;28;20024;-72
2023/07/16 03:06:45;;;;;;;8.55;3.95;;;25.00;82.70;;;;;;5054374;28;20025;-72
2023/07/16 03:09:11;;;;;;;10.90;5.00;;;25.00;82.70;;;;;;5072490;28;20426;-72
2023/07/16 03:11:37;;;;;;;10.55;4.78;;;25.00;82.70;;;;;;5072584;28;20097;-72
2023/07/16 03:14:02;;;;;;;6.75;3.85;;;25.00;82.70;;;;;;5072483;28;20047;-72
2023/07/16 03:16:28;;;;;;;11.10;4.40;;;24.90;82.80;;;;;;5072264;28;20056;-72
2023/07/16 03:18:54;;;;;;;9.07;3.92;;;25.00;83.10;;;;;;5073626;28;20025;-72
2023/07/16 03:21:19;;;;;;;8.73;4.30;;;24.90;83.30;;;;;;5075675;28;20078;-72
2023/07/16 03:23:45;;;;;;;7.35;4.15;;;24.90;83.40;;;;;;5075707;28;20078;-72
2023/07/16 03:26:11;;;;;;;14.93;4.50;;;24.90;83.40;;;;;;5075865;28;20021;-72
2023/07/16 03:28:37;;;;;;;10.25;4.40;;;24.80;83.40;;;;;;5075636;28;20028;-73
2023/07/16 03:31:03;;;;;;;8.00;4.30;;;24.80;83.40;;;;;;5075736;28;20013;-72
2023/07/16 03:33:28;;;;;;;11.10;4.60;;;24.90;83.50;;;;;;5075737;28;20501;-72
2023/07/16 03:35:54;;;;;;;10.18;4.85;;;24.80;83.60;;;;;;5075494;28;20020;-72
2023/07/16 03:38:20;;;;;;;11.00;5.05;;;24.80;83.60;;;;;;5075468;28;20036;-72
2023/07/16 03:40:49;;;;;;;10.30;4.38;;;24.80;83.80;;;;;;5075618;28;20024;-72
2023/07/16 03:43:16;;;;;;;8.73;4.68;;;24.80;83.70;;;;;;5075571;28;20036;-72
2023/07/16 03:45:42;;;;;;;9.45;4.70;;;24.80;83.90;;;;;;5075437;28;20097;-72
2023/07/16 03:48:08;;;;;;;9.07;4.78;;;24.80;84.00;;;;;;5075466;28;20427;-72
2023/07/16 03:50:34;;;;;;;9.57;4.40;;;24.70;83.90;;;;;;5075328;28;20020;-72
2023/07/16 03:53:00;;;;;;;8.52;4.45;;;24.70;83.90;;;;;;5075383;28;20478;-72
2023/07/16 03:55:26;;;;;;;12.00;4.65;;;24.70;83.70;;;;;;5075577;28;20017;-72
2023/07/16 03:57:52;;;;;;;10.93;4.30;;;24.60;83.70;;;;;;5075480;28;20029;-72
2023/07/16 04:00:18;;;;;;;15.75;5.20;;;24.60;83.80;;;;;;5075131;28;20036;-72
2023/07/16 04:02:43;;;;;;;10.55;4.43;;;24.60;84.10;;;;;;5075021;28;20040;-72
2023/07/16 04:05:10;;;;;;;8.40;4.65;;;24.50;84.20;;;;;;5075100;28;20024;-72
2023/07/16 04:07:35;;;;;;;12.10;5.28;;;24.50;84.40;;;;;;5075186;28;20385;-72
2023/07/16 04:10:01;;;;;;;13.75;5.10;;;24.50;84.60;;;;;;5075173;28;20027;-72
2023/07/16 04:12:27;;;;;;;15.50;4.93;;;24.50;84.80;;;;;;5074812;28;20378;-72
2023/07/16 04:14:58;;;;;;;9.95;4.80;;;24.50;84.70;;;;;;5075592;28;20032;-72
2023/07/16 04:17:24;;;;;;;10.07;4.53;;;24.40;84.60;;;;;;5056854;28;20486;-72
2023/07/16 04:19:50;;;;;;;10.88;4.53;;;24.50;84.80;;;;;;5075025;28;20158;-72
2023/07/16 04:22:16;;;;;;;9.50;5.22;;;24.40;84.90;;;;;;5075000;28;20111;-72
2023/07/16 04:24:42;;;;;;;10.00;4.18;;;24.40;84.90;;;;;;5074836;28;20111;-72
2023/07/16 04:27:07;;;;;;;14.63;4.75;;;24.50;84.70;;;;;;5074648;28;20016;-72
2023/07/16 04:29:33;;;;;;;10.32;5.03;;;24.50;84.60;;;;;;5074604;28;20029;-72
2023/07/16 04:31:59;;;;;;;9.70;4.22;;;24.40;84.50;;;;;;5074165;28;20028;-72
2023/07/16 04:34:25;;;;;;;9.40;4.65;;;24.40;84.50;;;;;;5074587;28;20021;-72
2023/07/16 04:36:50;;;;;;;12.93;5.32;;;24.40;84.40;;;;;;5074620;28;20027;-72
2023/07/16 04:39:16;;;;;;;10.52;4.55;;;24.40;84.60;;;;;;5074365;28;20067;-72
2023/07/16 04:41:42;;;;;;;9.63;4.47;;;24.40;84.80;;;;;;5074631;28;20024;-72
2023/07/16 04:44:08;;;;;;;13.65;5.05;;;24.40;84.90;;;;;;5074202;28;20037;-72
2023/07/16 04:46:34;;;;;;;9.07;4.63;;;24.40;85.00;;;;;;5074128;28;20044;-72
2023/07/16 04:49:01;;;;;;;10.27;4.63;;;24.40;85.20;;;;;;5074190;28;20036;-72
2023/07/16 04:51:26;;;;;;;11.95;4.65;;;24.40;85.30;;;;;;5056580;28;20017;-72
2023/07/16 04:53:52;;;;;;;9.90;4.55;;;24.40;85.60;;;;;;5074218;28;20025;-72
2023/07/16 04:56:18;;;;;;;7.32;4.50;;;24.40;86.00;;;;;;5074571;28;20040;-72
2023/07/16 04:58:44;;;;;;;9.13;4.95;;;24.50;86.20;;;;;;5074059;28;20028;-72
2023/07/16 05:01:10;;;;;;;11.13;4.90;;;24.50;86.40;;;;;;5056221;28;20127;-72
2023/07/16 05:03:36;;;;;;;12.32;4.47;;;24.50;86.50;;;;;;5073988;28;20032;-72
2023/07/16 05:06:02;;;;;;;14.68;4.57;;;24.50;86.40;;;;;;5074138;28;20048;-73
2023/07/16 05:08:28;;;;;;;9.65;4.70;;;24.50;86.40;;;;;;5073771;28;20074;-72
2023/07/16 05:10:54;;;;;;;15.15;4.88;;;24.50;86.50;;;;;;5074100;28;20032;-72
2023/07/16 05:13:20;;;;;;;15.20;5.43;;;24.60;86.70;;;;;;5073932;28;20036;-72
2023/07/16 05:15:46;;;;;;;9.07;4.65;;;24.60;86.70;;;;;;5055879;28;20033;-72
2023/07/16 05:18:12;;;;;;;9.68;4.43;;;24.60;86.80;;;;;;5056047;28;20126;-72
2023/07/16 05:20:38;;;;;;;13.75;5.50;;;24.70;87.00;;;;;;5073863;28;20027;-73
2023/07/16 05:23:04;;;;;;;12.77;4.90;;;24.70;87.00;;;;;;5073617;28;20482;-72
2023/07/16 05:25:29;;;;;;;12.63;5.28;;;24.70;86.50;;;;;;5073740;28;20042;-72
2023/07/16 05:27:56;;;;;;;11.07;4.68;;;24.80;86.20;;;;;;5074270;28;20174;-72
2023/07/16 05:30:22;;;;;;;13.27;5.18;;;24.80;86.00;;;;;;5073663;28;20382;-72
2023/07/16 05:32:48;;;;;;;10.88;5.03;;;24.80;85.70;;;;;;5073584;28;20038;-72
2023/07/16 05:35:14;;;;;;;13.00;5.28;;;24.90;85.40;;;;;;5073365;28;20024;-72
2023/07/16 05:37:39;;;;;;;13.07;5.45;;;24.90;85.10;;;;;;5073475;28;20103;-72
2023/07/16 05:40:08;;;;;;;12.95;5.38;;;24.90;85.10;;;;;;5073405;28;20047;-72
2023/07/16 05:42:34;;;;;;;15.77;5.53;;;24.90;85.10;;;;;;5072411;28;20024;-72
2023/07/16 05:45:00;;;;;;;13.60;5.32;;;25.00;85.40;;;;;;5073527;28;20431;-72
2023/07/16 05:47:26;;;;;;;14.30;4.97;;;25.00;85.50;;;;;;5073250;28;20064;-72
2023/07/16 05:49:51;;;;;;;9.05;4.78;;;25.00;85.20;;;;;;5055497;28;20027;-72
2023/07/16 05:52:18;;;;;;;8.30;4.65;;;25.00;85.20;;;;;;5073213;28;20024;-72
2023/07/16 05:54:44;;;;;;;11.32;4.88;;;25.10;85.20;;;;;;5073316;28;20020;-72
2023/07/16 05:57:10;;;;;;;14.85;5.25;;;25.10;85.20;;;;;;5073246;28;20351;-72
2023/07/16 05:59:37;;;;;;;10.55;4.78;;;25.20;85.40;;;;;;5073089;28;20020;-72
2023/07/16 06:02:03;;;;;;;16.70;5.30;;;25.20;85.20;;;;;;5073264;28;20119;-72
2023/07/16 06:04:29;;;;;;;12.35;4.70;;;25.20;85.30;;;;;;5073064;28;20541;-72
2023/07/16 06:06:56;;;;;;;9.82;4.93;;;25.30;85.10;;;;;;5073697;28;20017;-72
2023/07/16 06:09:22;;;;;;;15.10;4.78;;;25.30;85.00;;;;;;5073036;28;20032;-73
2023/07/16 06:11:48;;;;;;;10.02;4.32;;;25.40;85.10;;;;;;5070881;28;20093;-72
2023/07/16 06:14:13;;;;;;;9.73;4.97;;;25.40;85.60;;;;;;5070465;28;20052;-72
2023/07/16 06:16:39;;;;;;;17.15;5.03;;;25.40;86.10;;;;;;5071561;28;20125;-72
2023/07/16 06:19:05;;;;;;;14.25;4.55;;;25.50;85.10;;;;;;5072858;28;20029;-73
2023/07/16 06:21:31;;;;;;;13.38;4.30;;;25.50;84.60;;;;;;5072906;28;20020;-73
2023/07/16 06:23:56;;;;;;;13.60;4.93;;;25.60;84.50;;;;;;5072799;28;20094;-72
2023/07/16 06:26:22;;;;;;;10.38;4.43;;;25.60;84.60;;;;;;5072798;28;20027;-73
2023/07/16 06:28:49;;;;;;;11.30;5.25;;;25.70;84.90;;;;;;5072903;28;20027;-72
2023/07/16 06:31:16;;;;;;;19.10;5.13;;;25.70;84.90;;;;;;5072769;28;20062;-72
2023/07/16 06:33:42;;;;;;;12.40;5.10;;;25.70;85.00;;;;;;5072724;28;20048;-72
2023/07/16 06:36:08;;;;;;;22.52;5.63;;;25.80;85.00;;;;;;5072749;28;20106;-72
2023/07/16 06:38:33;;;;;;;11.05;4.80;;;25.80;85.00;;;;;;5072550;28;20131;-72
2023/07/16 06:40:59;;;;;;;18.85;5.35;;;25.80;84.90;;;;;;5054451;28;20098;-72
2023/07/16 06:43:25;;;;;;;12.93;5.20;;;25.90;85.00;;;;;;5072699;28;20114;-72
2023/07/16 06:45:51;;;;;;;13.07;5.30;;;25.90;85.10;;;;;;5072683;28;20027;-73
2023/07/16 06:48:17;;;;;;;12.07;5.28;;;25.90;84.70;;;;;;5072550;28;20029;-72
2023/07/16 06:50:43;;;;;;;13.07;5.05;;;26.00;84.60;;;;;;5072508;28;20019;-72
2023/07/16 06:53:09;;;;;;;21.77;5.85;;;26.10;84.50;;;;;;5054737;28;20032;-72
2023/07/16 06:55:35;;;;;;;14.45;5.60;;;26.10;84.00;;;;;;5058547;28;20028;-73
2023/07/16 06:58:01;;;;;;;12.57;5.55;;;26.10;83.80;;;;;;5076510;28;20017;-72
2023/07/16 07:00:27;;;;;;;16.02;5.20;;;26.10;83.90;;;;;;5058389;28;20111;-73
2023/07/16 07:02:52;;;;;;;16.98;5.82;;;26.20;84.10;;;;;;5076446;28;20111;-73
2023/07/16 07:05:18;;;;;;;11.60;5.13;;;26.20;84.20;;;;;;5076513;28;20035;-72
2023/07/16 07:07:45;;;;;;;14.15;5.25;;;26.30;83.90;;;;;;5076313;28;20024;-72
2023/07/16 07:10:12;;;;;;;11.73;5.60;;;26.30;84.20;;;;;;5076354;28;20124;-72
2023/07/16 07:12:38;;;;;;;16.52;5.85;;;26.40;84.30;;;;;;5076230;28;20025;-73
2023/07/16 07:15:06;;;;;;;12.18;5.50;;;26.40;84.30;;;;;;5076046;28;20020;-73
2023/07/16 07:17:32;;;;;;;17.42;5.45;;;26.50;84.30;;;;;;5075891;28;20045;-72
2023/07/16 07:19:58;;;;;;;15.05;5.18;;;26.50;84.10;;;;;;5076143;28;20027;-73
2023/07/16 07:22:23;;;;;;;14.27;5.38;;;26.60;84.10;;;;;;5076099;28;20024;-73
2023/07/16 07:24:50;;;;;;;14.57;5.53;;;26.70;83.70;;;;;;5075936;28;20028;-72
2023/07/16 07:27:16;;;;;;;12.40;4.95;;;26.70;83.00;;;;;;5075884;28;20025;-72
2023/07/16 07:29:42;;;;;;;17.08;5.43;;;26.70;82.50;;;;;;5075787;28;20467;-72
2023/07/16 07:32:08;;;;;;;12.60;4.70;;;26.80;82.30;;;;;;5075713;28;20020;-72
2023/07/16 07:34:33;;;;;;;15.38;4.80;;;26.80;82.40;;;;;;5075624;28;20028;-72
2023/07/16 07:36:59;;;;;;;14.40;5.05;;;26.90;82.30;;;;;;5075750;28;20031;-73
2023/07/16 07:39:25;;;;;;;9.60;4.43;;;26.90;82.10;;;;;;5075764;28;20021;-72
2023/07/16 07:41:50;;;;;;;18.50;5.15;;;27.00;82.20;;;;;;5075671;28;20541;-72
2023/07/16 07:44:16;;;;;;;13.60;5.15;;;27.00;81.90;;;;;;5075301;28;20398;-72
2023/07/16 07:46:42;;;;;;;15.80;5.00;;;27.00;81.70;;;;;;5075742;28;20032;-73
2023/07/16 07:49:08;;;;;;;14.52;5.15;;;27.10;81.60;;;;;;5075765;28;20028;-72
2023/07/16 07:51:33;;;;;;;13.13;4.75;;;27.10;81.60;;;;;;5075673;28;20033;-72
2023/07/16 07:54:00;;;;;;;17.13;5.40;;;27.20;81.70;;;;;;5075492;28;20379;-72
2023/07/16 07:56:25;;;;;;;17.70;5.35;;;27.20;81.40;;;;;;5075511;28;20028;-72
2023/07/16 07:58:51;;;;;;;8.65;4.90;;;27.20;81.00;;;;;;5075502;28;20020;-72
2023/07/16 08:01:17;;;;;;;13.68;4.57;;;27.30;80.70;;;;;;5075301;28;20493;-72
2023/07/16 08:03:42;;;;;;;18.48;5.47;;;27.30;79.90;;;;;;5075391;28;20043;-72
2023/07/16 08:06:11;;;;;;;10.10;4.65;;;27.40;79.50;;;;;;5074078;28;20558;-71
2023/07/16 08:08:36;;;;;;;12.80;4.90;;;27.40;80.60;;;;;;5074698;28;20025;-72
2023/07/16 08:11:02;;;;;;;14.52;5.28;;;27.50;80.10;;;;;;5074896;28;20104;-72
2023/07/16 08:13:28;;;;;;;15.20;5.45;;;27.50;80.20;;;;;;5074910;28;20021;-72
2023/07/16 08:15:53;;;;;;;12.75;4.72;;;27.60;80.40;;;;;;5074814;28;20067;-72
2023/07/16 08:18:19;;;;;;;14.73;5.45;;;27.60;80.90;;;;;;5074908;28;20028;-72
2023/07/16 08:20:47;;;;;;;17.60;5.93;;;27.60;80.90;;;;;;5074971;28;20108;-72
2023/07/16 08:23:12;;;;;;;14.23;5.07;;;27.70;80.40;;;;;;5074588;28;20044;-72
2023/07/16 08:25:38;;;;;;;15.05;5.03;;;27.80;80.50;;;;;;5057064;28;20406;-72
2023/07/16 08:28:04;;;;;;;19.55;6.22;;;27.80;80.10;;;;;;5075095;28;20024;-72
2023/07/16 08:30:31;;;;;;;14.25;5.35;;;27.90;80.10;;;;;;5074766;28;20474;-73
2023/07/16 08:32:57;;;;;;;15.93;5.70;;;27.90;79.90;;;;;;5074790;28;20025;-73
2023/07/16 08:35:23;;;;;;;20.00;5.35;;;28.00;80.20;;;;;;5074486;28;20031;-73
2023/07/16 08:37:49;;;;;;;10.15;4.95;;;28.10;80.10;;;;;;5074722;28;20091;-73
2023/07/16 08:40:15;;;;;;;14.55;5.18;;;28.10;79.90;;;;;;5056592;28;20036;-73
2023/07/16 08:42:44;;;;;;;14.35;4.78;;;28.20;79.50;;;;;;5074489;28;20079;-73
2023/07/16 08:45:11;;;;;;;16.65;5.32;;;28.20;80.10;;;;;;5074711;28;20029;-72
2023/07/16 08:47:37;;;;;;;13.15;4.85;;;28.30;80.10;;;;;;5074052;28;20039;-73
2023/07/16 08:50:03;;;;;;;14.80;5.20;;;28.30;79.70;;;;;;5074410;28;20024;-72
2023/07/16 08:52:29;;;;;;;17.20;5.18;;;28.30;79.40;;;;;;5074420;28;20035;-72
2023/07/16 08:54:55;;;;;;;17.83;5.30;;;28.40;79.10;;;;;;5074295;28;20025;-73
2023/07/16 08:57:22;;;;;;;11.52;4.60;;;28.50;78.40;;;;;;5073926;28;20028;-73
2023/07/16 08:59:49;;;;;;;15.68;5.00;;;28.50;78.40;;;;;;5056038;28;20032;-73
2023/07/16 09:02:18;;;;;;;13.40;5.30;;;28.50;79.00;;;;;;5074141;28;20044;-73
2023/07/16 09:04:45;;;;;;;15.98;5.40;;;28.60;79.20;;;;;;5073854;28;20027;-73
2023/07/16 09:07:11;;;;;;;15.35;5.38;;;28.70;79.10;;;;;;5074033;28;20501;-72
2023/07/16 09:09:36;;;;;;;16.38;5.38;;;28.70;78.90;;;;;;5074120;28;20032;-72
2023/07/16 09:12:02;;;;;;;14.50;5.00;;;28.70;78.80;;;;;;5073993;28;20035;-72
2023/07/16 09:14:28;;;;;;;15.00;5.40;;;28.80;79.00;;;;;;5073828;28;20017;-73
2023/07/16 09:16:54;;;;;;;16.05;5.47;;;28.90;79.30;;;;;;5081259;22;20053;-72
2023/07/16 09:19:20;;;;;;;15.10;4.60;;;28.90;79.20;;;;;;5073707;28;20024;-73
2023/07/16 09:21:48;;;;;;;16.15;4.78;;;29.00;79.40;;;;;;5073393;28;20105;-72
2023/07/16 09:24:14;;;;;;;16.20;5.45;;;29.00;79.00;;;;;;5055416;28;20044;-72
2023/07/16 09:26:47;;;;;;;15.75;4.70;;;29.00;78.80;;;;;;5073482;28;20013;-72
2023/07/16 09:29:13;;;;;;;12.07;5.10;;;29.10;78.70;;;;;;5073403;28;20037;-72
2023/07/16 09:31:57;;;;;;;12.60;4.65;;;29.10;78.60;;;;;;5073482;28;20021;-72
2023/07/16 09:34:23;;;;;;;12.20;5.47;;;29.20;78.20;;;;;;5072981;28;20507;-72
2023/07/16 09:36:50;;;;;;;16.05;5.07;;;29.20;78.20;;;;;;5073598;28;20054;-72
2023/07/16 09:39:19;;;;;;;15.90;5.97;;;29.20;78.90;;;;;;5073457;28;20498;-72
2023/07/16 09:41:49;;;;;;;10.68;5.25;;;29.30;78.80;;;;;;5073386;28;20385;-72
2023/07/16 09:44:16;;;;;;;13.45;5.10;;;29.40;78.90;;;;;;5072961;28;20074;-72
2023/07/16 09:46:42;;;;;;;13.63;5.57;;;29.40;78.40;;;;;;5073110;28;20158;-73
2023/07/16 09:49:08;;;;;;;14.65;4.80;;;29.40;77.90;;;;;;5073470;28;20094;-72
2023/07/16 09:51:36;;;;;;;15.23;5.22;;;29.50;77.60;;;;;;5073339;28;20028;-73
2023/07/16 09:54:03;;;;;;;16.38;5.05;;;29.50;77.20;;;;;;5073244;28;20036;-73
2023/07/16 09:56:37;;;;;;;15.32;5.88;;;29.60;76.20;;;;;;5073103;28;20021;-72
2023/07/16 09:59:11;;;;;;;11.65;5.32;;;29.60;76.30;;;;;;5055359;28;20436;-73
2023/07/16 10:01:40;;;;;;;15.88;5.07;;;29.70;77.60;;;;;;5073182;28;20024;-72
2023/07/16 10:04:17;;;;;;;18.23;5.25;;;29.80;77.80;;;;;;5073244;28;20367;-73
2023/07/16 10:06:56;;;;;;;19.10;6.35;;;29.80;77.70;;;;;;5073176;28;20486;-73
2023/07/16 10:09:32;;;;;;;16.50;5.35;;;29.80;77.10;;;;;;5072684;28;20111;-72
2023/07/16 10:12:18;;;;;;;18.05;5.43;;;30.00;76.70;;;;;;5072977;28;20028;-72
2023/07/16 10:14:46;;;;;;;18.85;6.07;;;30.00;76.70;;;;;;5072940;28;20021;-73
2023/07/16 10:17:23;;;;;;;16.90;6.25;;;30.00;76.30;;;;;;5072709;28;20052;-73
2023/07/16 10:19:51;;;;;;;15.63;5.55;;;30.00;76.90;;;;;;5072749;28;20028;-73
2023/07/16 10:22:35;;;;;;;12.88;5.10;;;30.10;77.90;;;;;;5072973;28;20029;-73
2023/07/16 10:25:02;;;;;;;13.45;5.30;;;30.10;77.90;;;;;;5073082;28;20126;-72
2023/07/16 10:27:34;;;;;;;18.35;6.20;;;30.20;77.20;;;;;;5072610;28;20044;-73
2023/07/16 10:30:04;;;;;;;15.73;5.05;;;30.30;77.60;;;;;;5054698;28;20385;-72
2023/07/16 10:32:32;;;;;;;10.57;5.20;;;30.30;76.10;;;;;;5072881;28;20428;-73
2023/07/16 10:34:58;;;;;;;11.18;4.93;;;30.40;76.20;;;;;;5072729;28;20029;-73
2023/07/16 10:37:25;;;;;;;15.52;5.38;;;30.40;75.90;;;;;;5072913;28;20025;-72
2023/07/16 10:39:53;;;;;;;13.23;5.22;;;30.40;76.20;;;;;;5072667;28;20020;-73
2023/07/16 10:42:20;;;;;;;13.35;5.60;;;30.50;76.00;;;;;;5072829;28;20489;-72
2023/07/16 10:44:50;;;;;;;14.15;5.30;;;30.50;76.00;;;;;;5072631;28;20029;-73
2023/07/16 10:47:30;;;;;;;15.52;5.25;;;30.60;74.10;;;;;;5072835;28;20094;-73
2023/07/16 10:49:56;;;;;;;15.02;4.80;;;30.70;74.20;;;;;;5072671;28;20029;-72
2023/07/16 10:52:23;;;;;;;16.73;5.45;;;30.70;74.20;;;;;;5072499;28;20036;-73
2023/07/16 10:54:49;;;;;;;15.98;5.35;;;30.70;74.10;;;;;;5072555;28;20024;-73
2023/07/16 10:57:16;;;;;;;14.52;5.35;;;30.70;73.50;;;;;;5072567;28;20056;-73
2023/07/16 10:59:45;;;;;;;11.63;5.07;;;30.80;74.10;;;;;;5069181;28;20024;-72
2023/07/16 11:02:13;;;;;;;17.63;5.03;;;30.80;75.10;;;;;;5069644;28;20067;-73
2023/07/16 11:04:39;;;;;;;12.82;4.70;;;30.90;75.10;;;;;;5072287;28;20073;-72
2023/07/16 11:07:11;;;;;;;17.40;5.97;;;30.90;74.50;;;;;;5072548;28;20095;-72
2023/07/16 11:09:50;;;;;;;12.05;4.80;;;30.90;73.70;;;;;;5072397;28;20082;-73
2023/07/16 11:12:17;;;;;;;12.25;5.30;;;30.90;73.90;;;;;;5072629;28;20024;-72
2023/07/16 11:14:46;;;;;;;13.00;4.95;;;30.90;74.50;;;;;;5072383;28;20115;-73
2023/07/16 11:17:13;;;;;;;12.32;5.22;;;31.00;74.40;;;;;;5072305;28;20443;-72
2023/07/16 11:19:40;;;;;;;18.27;5.47;;;31.00;73.00;;;;;;5072328;28;20039;-73
2023/07/16 11:22:08;;;;;;;13.05;5.30;;;31.10;73.40;;;;;;5072452;28;20095;-72
2023/07/16 11:24:42;;;;;;;15.75;5.60;;;31.20;74.10;;;;;;5069219;28;20504;-72
2023/07/16 11:27:31;;;;;;;15.05;5.00;;;31.20;74.00;;;;;;5069384;28;20089;-72
2023/07/16 11:29:58;;;;;;;19.50;5.82;;;31.20;73.30;;;;;;5070487;28;20047;-72
2023/07/16 11:32:30;;;;;;;12.55;4.82;;;31.20;72.80;;;;;;5072257;28;20082;-72
2023/07/16 11:34:58;;;;;;;16.60;4.90;;;31.30;73.10;;;;;;5072179;28;20413;-73
2023/07/16 11:37:29;;;;;;;15.43;5.32;;;31.30;73.50;;;;;;5072170;28;20076;-73
2023/07/16 11:39:56;;;;;;;12.50;4.75;;;31.40;71.00;;;;;;5072105;28;20025;-73
2023/07/16 11:42:34;;;;;;;12.40;5.47;;;31.40;71.60;;;;;;5075713;28;20028;-72
2023/07/16 11:45:01;;;;;;;10.25;4.90;;;31.50;70.70;;;;;;5075552;28;20032;-72
2023/07/16 11:47:27;;;;;;;12.10;4.70;;;31.40;71.00;;;;;;5075455;28;20055;-72
2023/07/16 11:49:54;;;;;;;14.75;4.70;;;31.50;71.50;;;;;;5075584;28;20036;-73
2023/07/16 11:52:22;;;;;;;13.73;4.90;;;31.60;70.90;;;;;;5075637;28;20066;-73
2023/07/16 11:54:49;;;;;;;10.18;4.60;;;31.60;70.60;;;;;;5075629;28;20482;-72
2023/07/16 11:57:15;;;;;;;15.43;4.45;;;31.60;70.60;;;;;;5075232;28;20023;-73
2023/07/16 11:59:41;;;;;;;15.63;5.18;;;31.60;69.80;;;;;;5075175;28;20108;-73
2023/07/16 12:02:08;;;;;;;11.63;4.80;;;31.70;69.50;;;;;;5075348;28;20048;-72
2023/07/16 12:04:33;;;;;;;14.13;4.50;;;31.80;69.00;;;;;;5075335;28;20029;-72
2023/07/16 12:06:59;;;;;;;12.57;4.47;;;31.80;69.10;;;;;;5075129;28;20016;-73
2023/07/16 12:09:25;;;;;;;13.23;4.82;;;31.80;67.80;;;;;;5075399;28;20040;-72
2023/07/16 12:11:50;;;;;;;10.57;4.55;;;31.80;68.00;;;;;;5075082;28;20382;-72
2023/07/16 12:14:16;;;;;;;8.23;3.95;;;31.90;66.50;;;;;;5075107;28;20373;-72
2023/07/16 12:16:42;;;;;;;16.02;4.28;;;31.90;65.70;;;;;;5074981;28;20561;-73
2023/07/16 12:19:10;;;;;;;9.05;4.28;;;31.90;65.10;;;;;;5075280;28;20039;-72
2023/07/16 12:21:36;;;;;;;10.82;4.22;;;31.90;66.10;;;;;;5074965;28;20438;-73
2023/07/16 12:24:02;;;;;;;17.42;4.40;;;32.00;66.70;;;;;;5074891;28;20367;-73
2023/07/16 12:26:28;;;;;;;12.90;4.32;;;32.00;66.70;;;;;;5074709;28;20017;-73
2023/07/16 12:28:54;;;;;;;9.77;4.10;;;32.10;66.80;;;;;;5074829;28;20025;-72
2023/07/16 12:31:20;;;;;;;13.00;3.95;;;32.10;65.80;;;;;;5074943;28;20021;-72
2023/07/16 12:33:47;;;;;;;12.10;4.25;;;32.20;66.40;;;;;;5074506;28;20032;-73
2023/07/16 12:36:13;;;;;;;13.55;5.28;;;32.20;65.80;;;;;;5074670;28;20021;-72